sensor_id;sensor_type;location;lat;lon;timestamp;P1;durP1;ratioP1;P2;durP2;ratioP2
5616;SDS011;2830;50.656;7.568;2023-05-10T00:00:24;9.53;;;0.80;;
5616;SDS011;2830;50.656;7.568;2023-05-10T00:02:51;9.10;;;0.87;;
5616;SDS011;2830;50.656;7.568;2023-05-10T00:05:18;9.13;;;0.77;;
5616;SDS011;2830;50.656;7.568;2023-05-10T00:07:45;9.63;;;1.00;;
5616;SDS011;2830;50.656;7.568;2023-05-10T00:10:11;9.00;;;1.00;;
5616;SDS011;2830;50.656;7.568;2023-05-10T00:12:38;8.87;;;0.70;;
5616;SDS011;2830;50.656;7.568;2023-05-10T00:15:05;13.27;;;0.97;;
5616;SDS011;2830;50.656;7.568;2023-05-10T00:17:32;10.53;;;0.70;;
5616;SDS011;2830;50.656;7.568;2023-05-10T00:19:59;9.20;;;0.90;;
5616;SDS011;2830;50.656;7.568;2023-05-10T00:22:26;9.23;;;0.73;;
5616;SDS011;2830;50.656;7.568;2023-05-10T00:24:53;9.00;;;0.93;;
5616;SDS011;2830;50.656;7.568;2023-05-10T00:27:19;9.27;;;1.20;;
5616;SDS011;2830;50.656;7.568;2023-05-10T00:29:46;9.23;;;0.97;;
5616;SDS011;2830;50.656;7.568;2023-05-10T00:32:13;8.93;;;0.83;;
5616;SDS011;2830;50.656;7.568;2023-05-10T00:34:40;9.23;;;0.90;;
5616;SDS011;2830;50.656;7.568;2023-05-10T00:37:06;13.40;;;1.20;;
5616;SDS011;2830;50.656;7.568;2023-05-10T00:39:33;9.10;;;0.90;;
5616;SDS011;2830;50.656;7.568;2023-05-10T00:41:59;9.30;;;1.03;;
5616;SDS011;2830;50.656;7.568;2023-05-10T00:44:26;10.53;;;1.30;;
5616;SDS011;2830;50.656;7.568;2023-05-10T00:46:53;9.70;;;1.40;;
5616;SDS011;2830;50.656;7.568;2023-05-10T00:49:20;10.43;;;1.30;;
5616;SDS011;2830;50.656;7.568;2023-05-10T00:51:47;9.67;;;1.47;;
5616;SDS011;2830;50.656;7.568;2023-05-10T00:54:14;10.03;;;1.53;;
5616;SDS011;2830;50.656;7.568;2023-05-10T00:56:41;9.17;;;1.00;;
5616;SDS011;2830;50.656;7.568;2023-05-10T00:59:17;9.97;;;1.73;;
5616;SDS011;2830;50.656;7.568;2023-05-10T01:01:45;9.50;;;1.30;;
5616;SDS011;2830;50.656;7.568;2023-05-10T01:04:12;10.20;;;1.67;;
5616;SDS011;2830;50.656;7.568;2023-05-10T01:06:40;11.57;;;1.40;;
5616;SDS011;2830;50.656;7.568;2023-05-10T01:09:07;11.33;;;1.47;;
5616;SDS011;2830;50.656;7.568;2023-05-10T01:11:34;11.83;;;1.40;;
5616;SDS011;2830;50.656;7.568;2023-05-10T01:14:02;9.43;;;1.40;;
5616;SDS011;2830;50.656;7.568;2023-05-10T01:16:29;9.70;;;1.40;;
5616;SDS011;2830;50.656;7.568;2023-05-10T01:19:01;9.40;;;1.43;;
5616;SDS011;2830;50.656;7.568;2023-05-10T01:24:32;10.83;;;1.70;;
5616;SDS011;2830;50.656;7.568;2023-05-10T01:32:43;9.50;;;1.40;;
5616;SDS011;2830;50.656;7.568;2023-05-10T01:35:32;10.90;;;1.50;;
5616;SDS011;2830;50.656;7.568;2023-05-10T01:46:36;10.77;;;1.73;;
5616;SDS011;2830;50.656;7.568;2023-05-10T01:49:08;12.23;;;1.60;;
5616;SDS011;2830;50.656;7.568;2023-05-10T01:51:39;9.90;;;1.67;;
5616;SDS011;2830;50.656;7.568;2023-05-10T01:54:10;10.00;;;1.80;;
5616;SDS011;2830;50.656;7.568;2023-05-10T01:56:40;10.30;;;1.70;;
5616;SDS011;2830;50.656;7.568;2023-05-10T01:59:11;10.03;;;1.93;;
5616;SDS011;2830;50.656;7.568;2023-05-10T02:01:40;9.93;;;1.70;;
5616;SDS011;2830;50.656;7.568;2023-05-10T02:04:07;10.43;;;1.70;;
5616;SDS011;2830;50.656;7.568;2023-05-10T02:06:35;10.30;;;1.80;;
5616;SDS011;2830;50.656;7.568;2023-05-10T02:09:05;10.30;;;1.80;;
5616;SDS011;2830;50.656;7.568;2023-05-10T02:11:33;10.43;;;1.33;;
5616;SDS011;2830;50.656;7.568;2023-05-10T02:13:59;15.67;;;2.07;;
5616;SDS011;2830;50.656;7.568;2023-05-10T02:16:27;10.00;;;1.70;;
5616;SDS011;2830;50.656;7.568;2023-05-10T02:18:57;10.23;;;1.53;;
5616;SDS011;2830;50.656;7.568;2023-05-10T02:21:25;9.63;;;1.53;;
5616;SDS011;2830;50.656;7.568;2023-05-10T02:23:53;10.63;;;1.73;;
5616;SDS011;2830;50.656;7.568;2023-05-10T02:26:21;10.37;;;2.13;;
5616;SDS011;2830;50.656;7.568;2023-05-10T02:28:51;9.90;;;1.50;;
5616;SDS011;2830;50.656;7.568;2023-05-10T02:31:19;12.20;;;2.00;;
5616;SDS011;2830;50.656;7.568;2023-05-10T02:33:47;12.23;;;2.43;;
5616;SDS011;2830;50.656;7.568;2023-05-10T02:36:15;10.43;;;1.80;;
5616;SDS011;2830;50.656;7.568;2023-05-10T02:38:42;12.10;;;3.23;;
5616;SDS011;2830;50.656;7.568;2023-05-10T02:41:10;10.77;;;2.47;;
5616;SDS011;2830;50.656;7.568;2023-05-10T02:43:37;11.60;;;2.10;;
5616;SDS011;2830;50.656;7.568;2023-05-10T02:46:06;13.33;;;2.30;;
5616;SDS011;2830;50.656;7.568;2023-05-10T02:48:33;12.33;;;2.20;;
5616;SDS011;2830;50.656;7.568;2023-05-10T02:51:00;11.93;;;3.03;;
5616;SDS011;2830;50.656;7.568;2023-05-10T02:53:32;11.13;;;2.10;;
5616;SDS011;2830;50.656;7.568;2023-05-10T02:56:08;10.97;;;2.50;;
5616;SDS011;2830;50.656;7.568;2023-05-10T02:58:40;11.27;;;2.63;;
5616;SDS011;2830;50.656;7.568;2023-05-10T03:01:07;10.17;;;1.90;;
5616;SDS011;2830;50.656;7.568;2023-05-10T03:03:34;11.63;;;2.40;;
5616;SDS011;2830;50.656;7.568;2023-05-10T03:06:01;10.63;;;2.10;;
5616;SDS011;2830;50.656;7.568;2023-05-10T03:08:28;9.77;;;1.67;;
5616;SDS011;2830;50.656;7.568;2023-05-10T03:11:12;11.43;;;2.47;;
5616;SDS011;2830;50.656;7.568;2023-05-10T03:13:46;11.03;;;2.00;;
5616;SDS011;2830;50.656;7.568;2023-05-10T03:16:25;9.80;;;1.60;;
5616;SDS011;2830;50.656;7.568;2023-05-10T03:19:06;11.93;;;2.13;;
5616;SDS011;2830;50.656;7.568;2023-05-10T03:21:47;11.87;;;1.63;;
5616;SDS011;2830;50.656;7.568;2023-05-10T03:24:18;10.53;;;1.60;;
5616;SDS011;2830;50.656;7.568;2023-05-10T03:26:47;12.23;;;2.30;;
5616;SDS011;2830;50.656;7.568;2023-05-10T03:29:15;9.50;;;1.20;;
5616;SDS011;2830;50.656;7.568;2023-05-10T03:31:43;9.83;;;1.70;;
5616;SDS011;2830;50.656;7.568;2023-05-10T03:34:10;9.37;;;1.20;;
5616;SDS011;2830;50.656;7.568;2023-05-10T03:36:37;9.40;;;1.20;;
5616;SDS011;2830;50.656;7.568;2023-05-10T03:39:03;11.97;;;1.77;;
5616;SDS011;2830;50.656;7.568;2023-05-10T03:41:30;10.23;;;1.43;;
5616;SDS011;2830;50.656;7.568;2023-05-10T03:43:57;9.33;;;1.00;;
5616;SDS011;2830;50.656;7.568;2023-05-10T03:46:23;12.10;;;1.30;;
5616;SDS011;2830;50.656;7.568;2023-05-10T03:48:50;10.50;;;1.57;;
5616;SDS011;2830;50.656;7.568;2023-05-10T03:51:17;9.10;;;0.97;;
5616;SDS011;2830;50.656;7.568;2023-05-10T03:53:43;10.37;;;1.50;;
5616;SDS011;2830;50.656;7.568;2023-05-10T03:56:10;9.57;;;1.10;;
5616;SDS011;2830;50.656;7.568;2023-05-10T03:58:37;9.43;;;1.30;;
5616;SDS011;2830;50.656;7.568;2023-05-10T04:01:04;10.20;;;1.30;;
5616;SDS011;2830;50.656;7.568;2023-05-10T04:03:30;9.90;;;1.47;;
5616;SDS011;2830;50.656;7.568;2023-05-10T04:06:01;9.40;;;1.27;;
5616;SDS011;2830;50.656;7.568;2023-05-10T04:08:28;11.30;;;1.47;;
5616;SDS011;2830;50.656;7.568;2023-05-10T04:11:04;11.50;;;1.80;;
5616;SDS011;2830;50.656;7.568;2023-05-10T04:13:32;16.77;;;2.10;;
5616;SDS011;2830;50.656;7.568;2023-05-10T04:15:58;9.97;;;1.70;;
5616;SDS011;2830;50.656;7.568;2023-05-10T04:18:25;12.23;;;1.30;;
5616;SDS011;2830;50.656;7.568;2023-05-10T04:20:52;9.57;;;1.50;;
5616;SDS011;2830;50.656;7.568;2023-05-10T04:23:19;10.40;;;1.30;;
5616;SDS011;2830;50.656;7.568;2023-05-10T04:25:45;9.80;;;1.17;;
5616;SDS011;2830;50.656;7.568;2023-05-10T04:28:12;10.20;;;1.70;;
5616;SDS011;2830;50.656;7.568;2023-05-10T04:30:39;10.60;;;1.63;;
5616;SDS011;2830;50.656;7.568;2023-05-10T04:33:06;10.00;;;1.70;;
5616;SDS011;2830;50.656;7.568;2023-05-10T04:35:33;10.83;;;1.53;;
5616;SDS011;2830;50.656;7.568;2023-05-10T04:38:00;9.87;;;1.30;;
5616;SDS011;2830;50.656;7.568;2023-05-10T04:40:27;10.13;;;1.67;;
5616;SDS011;2830;50.656;7.568;2023-05-10T04:42:54;11.50;;;1.70;;
5616;SDS011;2830;50.656;7.568;2023-05-10T04:45:20;10.47;;;1.60;;
5616;SDS011;2830;50.656;7.568;2023-05-10T04:47:47;9.57;;;1.63;;
5616;SDS011;2830;50.656;7.568;2023-05-10T04:50:14;9.73;;;1.33;;
5616;SDS011;2830;50.656;7.568;2023-05-10T04:52:41;10.63;;;1.40;;
5616;SDS011;2830;50.656;7.568;2023-05-10T04:55:07;10.87;;;1.80;;
5616;SDS011;2830;50.656;7.568;2023-05-10T04:57:35;11.83;;;1.97;;
5616;SDS011;2830;50.656;7.568;2023-05-10T05:00:02;10.30;;;1.97;;
5616;SDS011;2830;50.656;7.568;2023-05-10T05:02:29;10.40;;;1.70;;
5616;SDS011;2830;50.656;7.568;2023-05-10T05:04:57;10.47;;;2.00;;
5616;SDS011;2830;50.656;7.568;2023-05-10T05:07:23;10.80;;;2.00;;
5616;SDS011;2830;50.656;7.568;2023-05-10T05:09:50;9.97;;;1.83;;
5616;SDS011;2830;50.656;7.568;2023-05-10T05:12:17;11.27;;;2.37;;
5616;SDS011;2830;50.656;7.568;2023-05-10T05:14:43;9.70;;;1.50;;
5616;SDS011;2830;50.656;7.568;2023-05-10T05:17:10;11.80;;;2.50;;
5616;SDS011;2830;50.656;7.568;2023-05-10T05:19:37;11.77;;;2.13;;
5616;SDS011;2830;50.656;7.568;2023-05-10T05:22:03;11.87;;;2.47;;
5616;SDS011;2830;50.656;7.568;2023-05-10T05:24:36;13.50;;;2.80;;
5616;SDS011;2830;50.656;7.568;2023-05-10T05:27:05;15.37;;;4.53;;
5616;SDS011;2830;50.656;7.568;2023-05-10T05:29:32;14.07;;;4.43;;
5616;SDS011;2830;50.656;7.568;2023-05-10T05:31:59;14.50;;;4.97;;
5616;SDS011;2830;50.656;7.568;2023-05-10T05:34:26;15.60;;;5.20;;
5616;SDS011;2830;50.656;7.568;2023-05-10T05:36:53;18.23;;;5.73;;
5616;SDS011;2830;50.656;7.568;2023-05-10T05:39:20;19.63;;;6.43;;
5616;SDS011;2830;50.656;7.568;2023-05-10T05:41:46;21.20;;;7.43;;
5616;SDS011;2830;50.656;7.568;2023-05-10T05:44:13;20.73;;;7.80;;
5616;SDS011;2830;50.656;7.568;2023-05-10T05:46:39;17.37;;;6.50;;
5616;SDS011;2830;50.656;7.568;2023-05-10T05:49:06;19.27;;;7.00;;
5616;SDS011;2830;50.656;7.568;2023-05-10T05:51:33;18.53;;;7.37;;
5616;SDS011;2830;50.656;7.568;2023-05-10T05:54:00;17.73;;;7.10;;
5616;SDS011;2830;50.656;7.568;2023-05-10T05:56:27;19.10;;;7.73;;
5616;SDS011;2830;50.656;7.568;2023-05-10T05:58:54;17.80;;;6.80;;
5616;SDS011;2830;50.656;7.568;2023-05-10T06:01:21;18.37;;;7.20;;
5616;SDS011;2830;50.656;7.568;2023-05-10T06:03:47;18.10;;;6.67;;
5616;SDS011;2830;50.656;7.568;2023-05-10T06:06:16;20.17;;;8.00;;
5616;SDS011;2830;50.656;7.568;2023-05-10T06:08:43;18.60;;;7.43;;
5616;SDS011;2830;50.656;7.568;2023-05-10T06:11:10;19.20;;;7.03;;
5616;SDS011;2830;50.656;7.568;2023-05-10T06:13:36;19.53;;;7.60;;
5616;SDS011;2830;50.656;7.568;2023-05-10T06:16:03;19.00;;;8.00;;
5616;SDS011;2830;50.656;7.568;2023-05-10T06:18:30;20.20;;;6.80;;
5616;SDS011;2830;50.656;7.568;2023-05-10T06:20:57;21.93;;;7.00;;
5616;SDS011;2830;50.656;7.568;2023-05-10T06:23:24;17.97;;;7.23;;
5616;SDS011;2830;50.656;7.568;2023-05-10T06:25:51;18.57;;;8.00;;
5616;SDS011;2830;50.656;7.568;2023-05-10T06:28:18;14.20;;;5.43;;
5616;SDS011;2830;50.656;7.568;2023-05-10T06:30:45;17.13;;;6.23;;
5616;SDS011;2830;50.656;7.568;2023-05-10T06:33:11;18.40;;;6.70;;
5616;SDS011;2830;50.656;7.568;2023-05-10T06:35:38;17.00;;;6.27;;
5616;SDS011;2830;50.656;7.568;2023-05-10T06:38:05;18.40;;;6.60;;
5616;SDS011;2830;50.656;7.568;2023-05-10T06:40:32;12.83;;;4.23;;
5616;SDS011;2830;50.656;7.568;2023-05-10T06:43:00;16.30;;;5.27;;
5616;SDS011;2830;50.656;7.568;2023-05-10T06:45:26;13.93;;;4.90;;
5616;SDS011;2830;50.656;7.568;2023-05-10T06:47:53;13.70;;;4.50;;
5616;SDS011;2830;50.656;7.568;2023-05-10T06:50:19;13.87;;;4.77;;
5616;SDS011;2830;50.656;7.568;2023-05-10T06:52:46;14.47;;;4.50;;
5616;SDS011;2830;50.656;7.568;2023-05-10T06:55:13;16.90;;;5.07;;
5616;SDS011;2830;50.656;7.568;2023-05-10T06:57:40;14.27;;;4.90;;
5616;SDS011;2830;50.656;7.568;2023-05-10T07:00:07;14.10;;;4.50;;
5616;SDS011;2830;50.656;7.568;2023-05-10T07:02:35;15.67;;;4.60;;
5616;SDS011;2830;50.656;7.568;2023-05-10T07:05:02;13.77;;;4.57;;
5616;SDS011;2830;50.656;7.568;2023-05-10T07:07:29;14.10;;;4.20;;
5616;SDS011;2830;50.656;7.568;2023-05-10T07:09:56;14.37;;;4.60;;
5616;SDS011;2830;50.656;7.568;2023-05-10T07:12:24;15.23;;;4.80;;
5616;SDS011;2830;50.656;7.568;2023-05-10T07:14:50;14.97;;;4.53;;
5616;SDS011;2830;50.656;7.568;2023-05-10T07:17:17;15.63;;;4.77;;
5616;SDS011;2830;50.656;7.568;2023-05-10T07:19:44;15.37;;;5.20;;
5616;SDS011;2830;50.656;7.568;2023-05-10T07:22:11;13.03;;;4.47;;
5616;SDS011;2830;50.656;7.568;2023-05-10T07:24:38;12.60;;;4.87;;
5616;SDS011;2830;50.656;7.568;2023-05-10T07:27:04;13.57;;;4.60;;
5616;SDS011;2830;50.656;7.568;2023-05-10T07:29:31;12.87;;;4.70;;
5616;SDS011;2830;50.656;7.568;2023-05-10T07:31:58;14.03;;;4.57;;
5616;SDS011;2830;50.656;7.568;2023-05-10T07:34:25;14.00;;;4.47;;
5616;SDS011;2830;50.656;7.568;2023-05-10T07:36:52;14.43;;;5.20;;
5616;SDS011;2830;50.656;7.568;2023-05-10T07:39:19;13.97;;;4.03;;
5616;SDS011;2830;50.656;7.568;2023-05-10T07:41:53;16.77;;;4.63;;
5616;SDS011;2830;50.656;7.568;2023-05-10T07:44:20;11.47;;;3.60;;
5616;SDS011;2830;50.656;7.568;2023-05-10T07:46:47;13.33;;;3.90;;
5616;SDS011;2830;50.656;7.568;2023-05-10T07:49:14;13.47;;;4.77;;
5616;SDS011;2830;50.656;7.568;2023-05-10T07:51:41;13.93;;;4.70;;
5616;SDS011;2830;50.656;7.568;2023-05-10T07:54:08;12.73;;;3.90;;
5616;SDS011;2830;50.656;7.568;2023-05-10T07:56:35;12.10;;;3.87;;
5616;SDS011;2830;50.656;7.568;2023-05-10T07:59:02;13.30;;;4.40;;
5616;SDS011;2830;50.656;7.568;2023-05-10T08:01:34;11.97;;;3.70;;
5616;SDS011;2830;50.656;7.568;2023-05-10T08:04:02;13.10;;;3.67;;
5616;SDS011;2830;50.656;7.568;2023-05-10T08:06:29;11.30;;;3.17;;
5616;SDS011;2830;50.656;7.568;2023-05-10T08:08:56;11.30;;;3.23;;
5616;SDS011;2830;50.656;7.568;2023-05-10T08:11:23;12.40;;;3.50;;
5616;SDS011;2830;50.656;7.568;2023-05-10T08:13:50;12.67;;;3.70;;
5616;SDS011;2830;50.656;7.568;2023-05-10T08:16:20;11.33;;;3.20;;
5616;SDS011;2830;50.656;7.568;2023-05-10T08:18:47;11.93;;;3.57;;
5616;SDS011;2830;50.656;7.568;2023-05-10T08:21:15;11.43;;;3.00;;
5616;SDS011;2830;50.656;7.568;2023-05-10T08:23:43;10.90;;;3.20;;
5616;SDS011;2830;50.656;7.568;2023-05-10T08:26:10;14.23;;;3.30;;
5616;SDS011;2830;50.656;7.568;2023-05-10T08:28:37;14.40;;;3.30;;
5616;SDS011;2830;50.656;7.568;2023-05-10T08:31:04;12.50;;;3.40;;
5616;SDS011;2830;50.656;7.568;2023-05-10T08:33:31;11.97;;;3.07;;
5616;SDS011;2830;50.656;7.568;2023-05-10T08:35:58;12.53;;;3.50;;
5616;SDS011;2830;50.656;7.568;2023-05-10T08:38:24;13.00;;;3.50;;
5616;SDS011;2830;50.656;7.568;2023-05-10T08:40:51;11.50;;;3.00;;
5616;SDS011;2830;50.656;7.568;2023-05-10T08:43:28;13.00;;;2.87;;
5616;SDS011;2830;50.656;7.568;2023-05-10T08:45:56;13.63;;;3.40;;
5616;SDS011;2830;50.656;7.568;2023-05-10T08:48:25;13.40;;;3.20;;
5616;SDS011;2830;50.656;7.568;2023-05-10T08:50:54;11.60;;;3.53;;
5616;SDS011;2830;50.656;7.568;2023-05-10T08:53:24;14.47;;;3.40;;
5616;SDS011;2830;50.656;7.568;2023-05-10T08:55:53;11.93;;;2.97;;
5616;SDS011;2830;50.656;7.568;2023-05-10T08:58:20;10.57;;;2.33;;
5616;SDS011;2830;50.656;7.568;2023-05-10T09:00:49;11.47;;;3.17;;
5616;SDS011;2830;50.656;7.568;2023-05-10T09:03:19;14.30;;;2.40;;
5616;SDS011;2830;50.656;7.568;2023-05-10T09:05:46;10.77;;;2.70;;
5616;SDS011;2830;50.656;7.568;2023-05-10T09:08:13;12.60;;;3.13;;
5616;SDS011;2830;50.656;7.568;2023-05-10T09:10:42;11.13;;;2.83;;
5616;SDS011;2830;50.656;7.568;2023-05-10T09:13:10;12.00;;;3.00;;
5616;SDS011;2830;50.656;7.568;2023-05-10T09:15:40;10.57;;;2.63;;
5616;SDS011;2830;50.656;7.568;2023-05-10T09:18:07;10.83;;;2.60;;
5616;SDS011;2830;50.656;7.568;2023-05-10T09:20:33;12.10;;;2.83;;
5616;SDS011;2830;50.656;7.568;2023-05-10T09:23:00;11.00;;;2.93;;
5616;SDS011;2830;50.656;7.568;2023-05-10T09:25:27;12.60;;;3.10;;
5616;SDS011;2830;50.656;7.568;2023-05-10T09:27:53;11.00;;;2.60;;
5616;SDS011;2830;50.656;7.568;2023-05-10T09:30:25;10.17;;;2.37;;
5616;SDS011;2830;50.656;7.568;2023-05-10T09:32:53;11.33;;;2.63;;
5616;SDS011;2830;50.656;7.568;2023-05-10T09:35:22;16.40;;;3.80;;
5616;SDS011;2830;50.656;7.568;2023-05-10T09:37:55;10.77;;;2.47;;
5616;SDS011;2830;50.656;7.568;2023-05-10T09:40:24;11.40;;;2.63;;
5616;SDS011;2830;50.656;7.568;2023-05-10T09:42:58;13.30;;;2.90;;
5616;SDS011;2830;50.656;7.568;2023-05-10T09:45:28;14.93;;;3.60;;
5616;SDS011;2830;50.656;7.568;2023-05-10T09:47:56;16.50;;;2.40;;
5616;SDS011;2830;50.656;7.568;2023-05-10T09:50:24;12.03;;;2.40;;
5616;SDS011;2830;50.656;7.568;2023-05-10T09:52:52;10.20;;;2.20;;
5616;SDS011;2830;50.656;7.568;2023-05-10T09:55:23;11.90;;;2.00;;
5616;SDS011;2830;50.656;7.568;2023-05-10T09:58:04;11.03;;;1.70;;
5616;SDS011;2830;50.656;7.568;2023-05-10T10:00:45;12.73;;;2.30;;
5616;SDS011;2830;50.656;7.568;2023-05-10T10:03:14;10.03;;;1.13;;
5616;SDS011;2830;50.656;7.568;2023-05-10T10:05:42;18.93;;;1.23;;
5616;SDS011;2830;50.656;7.568;2023-05-10T10:08:10;9.00;;;0.80;;
5616;SDS011;2830;50.656;7.568;2023-05-10T10:10:38;8.70;;;0.80;;
5616;SDS011;2830;50.656;7.568;2023-05-10T10:13:07;8.40;;;0.97;;
5616;SDS011;2830;50.656;7.568;2023-05-10T10:15:34;9.30;;;1.10;;
5616;SDS011;2830;50.656;7.568;2023-05-10T10:18:01;9.87;;;1.23;;
5616;SDS011;2830;50.656;7.568;2023-05-10T10:20:30;9.93;;;0.90;;
5616;SDS011;2830;50.656;7.568;2023-05-10T10:22:56;9.43;;;0.70;;
5616;SDS011;2830;50.656;7.568;2023-05-10T10:25:23;8.80;;;0.77;;
5616;SDS011;2830;50.656;7.568;2023-05-10T10:30:39;9.80;;;0.97;;
5616;SDS011;2830;50.656;7.568;2023-05-10T10:36:07;9.30;;;0.97;;
5616;SDS011;2830;50.656;7.568;2023-05-10T10:41:29;8.67;;;0.73;;
5616;SDS011;2830;50.656;7.568;2023-05-10T10:49:32;9.70;;;1.10;;
5616;SDS011;2830;50.656;7.568;2023-05-10T10:54:39;9.00;;;0.90;;
5616;SDS011;2830;50.656;7.568;2023-05-10T10:57:11;8.63;;;0.80;;
5616;SDS011;2830;50.656;7.568;2023-05-10T10:59:42;8.83;;;0.97;;
5616;SDS011;2830;50.656;7.568;2023-05-10T11:07:57;9.07;;;1.00;;
5616;SDS011;2830;50.656;7.568;2023-05-10T11:10:24;9.70;;;1.00;;
5616;SDS011;2830;50.656;7.568;2023-05-10T11:12:53;9.93;;;1.07;;
5616;SDS011;2830;50.656;7.568;2023-05-10T11:15:34;10.00;;;1.00;;
5616;SDS011;2830;50.656;7.568;2023-05-10T11:21:03;10.60;;;1.40;;
5616;SDS011;2830;50.656;7.568;2023-05-10T11:23:56;11.27;;;1.20;;
5616;SDS011;2830;50.656;7.568;2023-05-10T11:26:24;10.17;;;1.00;;
5616;SDS011;2830;50.656;7.568;2023-05-10T11:28:56;10.27;;;0.90;;
5616;SDS011;2830;50.656;7.568;2023-05-10T11:31:22;11.20;;;1.07;;
5616;SDS011;2830;50.656;7.568;2023-05-10T11:33:50;10.73;;;0.80;;
5616;SDS011;2830;50.656;7.568;2023-05-10T11:36:26;11.17;;;0.90;;
5616;SDS011;2830;50.656;7.568;2023-05-10T11:38:55;11.23;;;0.80;;
5616;SDS011;2830;50.656;7.568;2023-05-10T11:41:23;10.87;;;0.90;;
5616;SDS011;2830;50.656;7.568;2023-05-10T11:43:51;11.10;;;1.00;;
5616;SDS011;2830;50.656;7.568;2023-05-10T11:46:20;10.90;;;0.90;;
5616;SDS011;2830;50.656;7.568;2023-05-10T11:48:49;11.00;;;0.90;;
5616;SDS011;2830;50.656;7.568;2023-05-10T11:51:24;11.70;;;1.03;;
5616;SDS011;2830;50.656;7.568;2023-05-10T11:53:52;12.13;;;1.40;;
5616;SDS011;2830;50.656;7.568;2023-05-10T11:56:20;12.43;;;1.40;;
5616;SDS011;2830;50.656;7.568;2023-05-10T11:58:54;11.20;;;1.50;;
5616;SDS011;2830;50.656;7.568;2023-05-10T12:01:22;13.70;;;2.10;;
5616;SDS011;2830;50.656;7.568;2023-05-10T12:03:53;11.73;;;2.60;;
5616;SDS011;2830;50.656;7.568;2023-05-10T12:06:28;13.30;;;2.83;;
5616;SDS011;2830;50.656;7.568;2023-05-10T12:09:05;12.73;;;2.70;;
5616;SDS011;2830;50.656;7.568;2023-05-10T12:11:37;13.30;;;3.00;;
5616;SDS011;2830;50.656;7.568;2023-05-10T12:14:08;13.00;;;3.23;;
5616;SDS011;2830;50.656;7.568;2023-05-10T12:16:37;13.03;;;3.63;;
5616;SDS011;2830;50.656;7.568;2023-05-10T12:19:10;12.87;;;3.90;;
5616;SDS011;2830;50.656;7.568;2023-05-10T12:21:37;13.13;;;3.97;;
5616;SDS011;2830;50.656;7.568;2023-05-10T12:24:05;13.70;;;4.80;;
5616;SDS011;2830;50.656;7.568;2023-05-10T12:26:32;16.60;;;5.87;;
5616;SDS011;2830;50.656;7.568;2023-05-10T12:29:13;13.50;;;4.27;;
5616;SDS011;2830;50.656;7.568;2023-05-10T12:31:55;13.20;;;4.90;;
5616;SDS011;2830;50.656;7.568;2023-05-10T12:34:23;13.70;;;4.93;;
5616;SDS011;2830;50.656;7.568;2023-05-10T12:36:51;14.73;;;4.40;;
5616;SDS011;2830;50.656;7.568;2023-05-10T12:39:19;13.23;;;4.40;;
5616;SDS011;2830;50.656;7.568;2023-05-10T12:41:46;11.83;;;3.60;;
5616;SDS011;2830;50.656;7.568;2023-05-10T12:44:12;12.70;;;4.37;;
5616;SDS011;2830;50.656;7.568;2023-05-10T12:46:39;12.77;;;4.10;;
5616;SDS011;2830;50.656;7.568;2023-05-10T12:49:06;13.57;;;4.47;;
5616;SDS011;2830;50.656;7.568;2023-05-10T12:51:34;12.43;;;3.97;;
5616;SDS011;2830;50.656;7.568;2023-05-10T12:54:02;13.17;;;4.10;;
5616;SDS011;2830;50.656;7.568;2023-05-10T12:56:29;16.67;;;5.30;;
5616;SDS011;2830;50.656;7.568;2023-05-10T12:58:56;13.87;;;3.93;;
5616;SDS011;2830;50.656;7.568;2023-05-10T13:01:22;15.00;;;4.37;;
5616;SDS011;2830;50.656;7.568;2023-05-10T13:03:49;16.03;;;3.73;;
5616;SDS011;2830;50.656;7.568;2023-05-10T13:06:16;13.63;;;3.80;;
5616;SDS011;2830;50.656;7.568;2023-05-10T13:08:43;15.03;;;4.60;;
5616;SDS011;2830;50.656;7.568;2023-05-10T13:11:09;15.50;;;4.73;;
5616;SDS011;2830;50.656;7.568;2023-05-10T13:13:36;19.27;;;2.90;;
5616;SDS011;2830;50.656;7.568;2023-05-10T13:16:03;12.63;;;2.13;;
5616;SDS011;2830;50.656;7.568;2023-05-10T13:18:30;12.20;;;1.60;;
5616;SDS011;2830;50.656;7.568;2023-05-10T13:20:56;13.20;;;1.90;;
5616;SDS011;2830;50.656;7.568;2023-05-10T13:23:23;13.43;;;1.80;;
5616;SDS011;2830;50.656;7.568;2023-05-10T13:25:50;13.00;;;1.97;;
5616;SDS011;2830;50.656;7.568;2023-05-10T13:28:16;15.00;;;1.70;;
5616;SDS011;2830;50.656;7.568;2023-05-10T13:30:43;13.33;;;1.60;;
5616;SDS011;2830;50.656;7.568;2023-05-10T13:33:10;12.40;;;1.30;;
5616;SDS011;2830;50.656;7.568;2023-05-10T13:35:36;12.50;;;1.70;;
5616;SDS011;2830;50.656;7.568;2023-05-10T13:38:03;12.03;;;1.37;;
5616;SDS011;2830;50.656;7.568;2023-05-10T13:40:30;13.90;;;2.60;;
5616;SDS011;2830;50.656;7.568;2023-05-10T13:42:56;14.27;;;3.10;;
5616;SDS011;2830;50.656;7.568;2023-05-10T13:45:23;17.33;;;4.73;;
5616;SDS011;2830;50.656;7.568;2023-05-10T13:47:50;17.10;;;4.80;;
5616;SDS011;2830;50.656;7.568;2023-05-10T13:50:18;17.30;;;4.40;;
5616;SDS011;2830;50.656;7.568;2023-05-10T13:52:45;15.90;;;4.23;;
5616;SDS011;2830;50.656;7.568;2023-05-10T13:55:12;17.70;;;5.07;;
5616;SDS011;2830;50.656;7.568;2023-05-10T13:57:39;18.03;;;4.40;;
5616;SDS011;2830;50.656;7.568;2023-05-10T14:00:06;15.80;;;3.83;;
5616;SDS011;2830;50.656;7.568;2023-05-10T14:02:33;16.00;;;5.27;;
5616;SDS011;2830;50.656;7.568;2023-05-10T14:05:00;15.30;;;4.53;;
5616;SDS011;2830;50.656;7.568;2023-05-10T14:07:27;17.33;;;5.40;;
5616;SDS011;2830;50.656;7.568;2023-05-10T14:09:54;15.50;;;5.60;;
5616;SDS011;2830;50.656;7.568;2023-05-10T14:12:20;15.93;;;5.37;;
5616;SDS011;2830;50.656;7.568;2023-05-10T14:14:47;18.23;;;6.23;;
5616;SDS011;2830;50.656;7.568;2023-05-10T14:17:14;14.17;;;5.07;;
5616;SDS011;2830;50.656;7.568;2023-05-10T14:19:40;15.90;;;5.77;;
5616;SDS011;2830;50.656;7.568;2023-05-10T14:22:07;13.43;;;4.70;;
5616;SDS011;2830;50.656;7.568;2023-05-10T14:24:34;15.70;;;5.33;;
5616;SDS011;2830;50.656;7.568;2023-05-10T14:27:00;14.40;;;5.20;;
5616;SDS011;2830;50.656;7.568;2023-05-10T14:29:27;15.23;;;5.07;;
5616;SDS011;2830;50.656;7.568;2023-05-10T14:31:54;13.13;;;4.47;;
5616;SDS011;2830;50.656;7.568;2023-05-10T14:34:20;13.73;;;5.23;;
5616;SDS011;2830;50.656;7.568;2023-05-10T14:36:47;12.53;;;4.20;;
5616;SDS011;2830;50.656;7.568;2023-05-10T14:39:14;15.63;;;4.40;;
5616;SDS011;2830;50.656;7.568;2023-05-10T14:41:41;12.77;;;3.87;;
5616;SDS011;2830;50.656;7.568;2023-05-10T14:44:08;13.27;;;4.97;;
5616;SDS011;2830;50.656;7.568;2023-05-10T14:46:36;12.23;;;3.60;;
5616;SDS011;2830;50.656;7.568;2023-05-10T14:49:03;13.20;;;2.80;;
5616;SDS011;2830;50.656;7.568;2023-05-10T14:51:29;10.07;;;2.33;;
5616;SDS011;2830;50.656;7.568;2023-05-10T14:53:56;10.90;;;2.37;;
5616;SDS011;2830;50.656;7.568;2023-05-10T14:56:23;13.73;;;4.53;;
5616;SDS011;2830;50.656;7.568;2023-05-10T14:58:49;11.60;;;3.10;;
5616;SDS011;2830;50.656;7.568;2023-05-10T15:01:16;15.13;;;3.63;;
5616;SDS011;2830;50.656;7.568;2023-05-10T15:03:43;10.60;;;2.50;;
5616;SDS011;2830;50.656;7.568;2023-05-10T15:06:11;12.10;;;2.80;;
5616;SDS011;2830;50.656;7.568;2023-05-10T15:08:41;11.70;;;3.10;;
5616;SDS011;2830;50.656;7.568;2023-05-10T15:11:07;10.80;;;2.83;;
5616;SDS011;2830;50.656;7.568;2023-05-10T15:13:34;9.80;;;2.30;;
5616;SDS011;2830;50.656;7.568;2023-05-10T15:16:01;10.53;;;2.20;;
5616;SDS011;2830;50.656;7.568;2023-05-10T15:18:27;9.97;;;2.17;;
5616;SDS011;2830;50.656;7.568;2023-05-10T15:20:54;10.70;;;2.23;;
5616;SDS011;2830;50.656;7.568;2023-05-10T15:23:21;10.77;;;2.87;;
5616;SDS011;2830;50.656;7.568;2023-05-10T15:25:48;9.70;;;1.80;;
5616;SDS011;2830;50.656;7.568;2023-05-10T15:28:16;10.07;;;2.30;;
5616;SDS011;2830;50.656;7.568;2023-05-10T15:30:42;9.53;;;1.90;;
5616;SDS011;2830;50.656;7.568;2023-05-10T15:33:10;9.60;;;1.90;;
5616;SDS011;2830;50.656;7.568;2023-05-10T15:35:37;11.43;;;2.20;;
5616;SDS011;2830;50.656;7.568;2023-05-10T15:38:05;10.00;;;2.00;;
5616;SDS011;2830;50.656;7.568;2023-05-10T15:40:32;10.03;;;1.83;;
5616;SDS011;2830;50.656;7.568;2023-05-10T15:42:58;10.70;;;2.20;;
5616;SDS011;2830;50.656;7.568;2023-05-10T15:45:25;10.70;;;1.90;;
5616;SDS011;2830;50.656;7.568;2023-05-10T15:47:52;10.10;;;2.40;;
5616;SDS011;2830;50.656;7.568;2023-05-10T15:50:19;9.80;;;1.97;;
5616;SDS011;2830;50.656;7.568;2023-05-10T15:52:45;9.43;;;2.13;;